sensor_id;sensor_type;location;lat;lon;timestamp;P1;durP1;ratioP1;P2;durP2;ratioP2
4096;SDS011;2062;50.694;7.246;2023-05-07T00:02:23;3.53;;;1.10;;
4096;SDS011;2062;50.694;7.246;2023-05-07T00:04:50;3.60;;;1.00;;
4096;SDS011;2062;50.694;7.246;2023-05-07T00:07:18;3.42;;;0.90;;
4096;SDS011;2062;50.694;7.246;2023-05-07T00:09:45;5.03;;;1.00;;
4096;SDS011;2062;50.694;7.246;2023-05-07T00:12:12;4.03;;;1.00;;
4096;SDS011;2062;50.694;7.246;2023-05-07T00:14:39;4.00;;;1.00;;
4096;SDS011;2062;50.694;7.246;2023-05-07T00:17:06;3.45;;;1.20;;
4096;SDS011;2062;50.694;7.246;2023-05-07T00:19:33;3.72;;;1.00;;
4096;SDS011;2062;50.694;7.246;2023-05-07T00:22:00;3.28;;;1.08;;
4096;SDS011;2062;50.694;7.246;2023-05-07T00:24:28;4.23;;;1.10;;
4096;SDS011;2062;50.694;7.246;2023-05-07T00:26:55;4.22;;;1.20;;
4096;SDS011;2062;50.694;7.246;2023-05-07T00:29:23;3.92;;;1.30;;
4096;SDS011;2062;50.694;7.246;2023-05-07T00:31:50;3.50;;;1.20;;
4096;SDS011;2062;50.694;7.246;2023-05-07T00:34:19;5.10;;;1.38;;
4096;SDS011;2062;50.694;7.246;2023-05-07T00:36:46;4.53;;;1.20;;
4096;SDS011;2062;50.694;7.246;2023-05-07T00:39:13;4.20;;;1.10;;
4096;SDS011;2062;50.694;7.246;2023-05-07T00:41:41;4.60;;;1.40;;
4096;SDS011;2062;50.694;7.246;2023-05-07T00:44:08;8.10;;;1.40;;
4096;SDS011;2062;50.694;7.246;2023-05-07T00:46:34;5.00;;;1.30;;
4096;SDS011;2062;50.694;7.246;2023-05-07T00:49:01;4.03;;;1.20;;
4096;SDS011;2062;50.694;7.246;2023-05-07T00:51:29;5.53;;;1.40;;
4096;SDS011;2062;50.694;7.246;2023-05-07T00:53:56;4.07;;;1.10;;
4096;SDS011;2062;50.694;7.246;2023-05-07T00:56:23;3.30;;;1.17;;
4096;SDS011;2062;50.694;7.246;2023-05-07T00:58:52;3.95;;;1.30;;
4096;SDS011;2062;50.694;7.246;2023-05-07T01:01:19;3.80;;;1.00;;
4096;SDS011;2062;50.694;7.246;2023-05-07T01:03:46;4.20;;;1.40;;
4096;SDS011;2062;50.694;7.246;2023-05-07T01:06:13;3.88;;;1.25;;
4096;SDS011;2062;50.694;7.246;2023-05-07T01:08:41;4.82;;;1.10;;
4096;SDS011;2062;50.694;7.246;2023-05-07T01:11:09;3.50;;;1.20;;
4096;SDS011;2062;50.694;7.246;2023-05-07T01:13:37;3.83;;;1.10;;
4096;SDS011;2062;50.694;7.246;2023-05-07T01:16:06;5.82;;;1.40;;
4096;SDS011;2062;50.694;7.246;2023-05-07T01:18:35;5.05;;;1.40;;
4096;SDS011;2062;50.694;7.246;2023-05-07T01:21:02;4.60;;;1.42;;
4096;SDS011;2062;50.694;7.246;2023-05-07T01:23:32;3.60;;;1.27;;
4096;SDS011;2062;50.694;7.246;2023-05-07T01:26:01;3.80;;;1.40;;
4096;SDS011;2062;50.694;7.246;2023-05-07T01:28:28;3.47;;;1.10;;
4096;SDS011;2062;50.694;7.246;2023-05-07T01:30:56;4.85;;;1.30;;
4096;SDS011;2062;50.694;7.246;2023-05-07T01:33:27;4.40;;;1.20;;
4096;SDS011;2062;50.694;7.246;2023-05-07T01:35:57;5.20;;;1.10;;
4096;SDS011;2062;50.694;7.246;2023-05-07T01:38:27;5.40;;;1.20;;
4096;SDS011;2062;50.694;7.246;2023-05-07T01:40:56;4.32;;;1.17;;
4096;SDS011;2062;50.694;7.246;2023-05-07T01:43:23;3.65;;;1.13;;
4096;SDS011;2062;50.694;7.246;2023-05-07T01:45:51;3.53;;;1.15;;
4096;SDS011;2062;50.694;7.246;2023-05-07T01:48:19;4.50;;;1.20;;
4096;SDS011;2062;50.694;7.246;2023-05-07T01:50:46;4.10;;;1.23;;
4096;SDS011;2062;50.694;7.246;2023-05-07T01:53:13;3.70;;;1.30;;
4096;SDS011;2062;50.694;7.246;2023-05-07T01:55:40;4.78;;;1.40;;
4096;SDS011;2062;50.694;7.246;2023-05-07T01:58:08;3.50;;;1.20;;
4096;SDS011;2062;50.694;7.246;2023-05-07T02:00:36;3.92;;;1.10;;
4096;SDS011;2062;50.694;7.246;2023-05-07T02:03:02;4.70;;;1.30;;
4096;SDS011;2062;50.694;7.246;2023-05-07T02:05:29;4.53;;;1.17;;
4096;SDS011;2062;50.694;7.246;2023-05-07T02:07:56;4.22;;;1.67;;
4096;SDS011;2062;50.694;7.246;2023-05-07T02:10:23;4.47;;;1.40;;
4096;SDS011;2062;50.694;7.246;2023-05-07T02:12:50;3.88;;;1.40;;
4096;SDS011;2062;50.694;7.246;2023-05-07T02:15:18;4.87;;;1.37;;
4096;SDS011;2062;50.694;7.246;2023-05-07T02:18:00;4.50;;;1.33;;
4096;SDS011;2062;50.694;7.246;2023-05-07T02:20:28;4.72;;;1.48;;
4096;SDS011;2062;50.694;7.246;2023-05-07T02:22:55;4.60;;;1.20;;
4096;SDS011;2062;50.694;7.246;2023-05-07T02:25:22;4.88;;;1.40;;
4096;SDS011;2062;50.694;7.246;2023-05-07T02:27:49;4.20;;;1.20;;
4096;SDS011;2062;50.694;7.246;2023-05-07T02:30:15;5.53;;;1.58;;
4096;SDS011;2062;50.694;7.246;2023-05-07T02:32:46;3.50;;;1.15;;
4096;SDS011;2062;50.694;7.246;2023-05-07T02:35:12;4.25;;;1.45;;
4096;SDS011;2062;50.694;7.246;2023-05-07T02:37:39;3.72;;;1.25;;
4096;SDS011;2062;50.694;7.246;2023-05-07T02:40:06;4.13;;;1.50;;
4096;SDS011;2062;50.694;7.246;2023-05-07T02:42:34;4.05;;;1.50;;
4096;SDS011;2062;50.694;7.246;2023-05-07T02:45:01;3.95;;;1.33;;
4096;SDS011;2062;50.694;7.246;2023-05-07T02:47:29;4.03;;;1.50;;
4096;SDS011;2062;50.694;7.246;2023-05-07T02:49:56;5.28;;;1.50;;
4096;SDS011;2062;50.694;7.246;2023-05-07T02:52:23;4.70;;;1.60;;
4096;SDS011;2062;50.694;7.246;2023-05-07T02:54:50;3.75;;;1.27;;
4096;SDS011;2062;50.694;7.246;2023-05-07T02:57:17;4.25;;;1.33;;
4096;SDS011;2062;50.694;7.246;2023-05-07T02:59:43;3.58;;;1.40;;
4096;SDS011;2062;50.694;7.246;2023-05-07T03:02:10;4.13;;;1.42;;
4096;SDS011;2062;50.694;7.246;2023-05-07T03:04:39;3.57;;;1.17;;
4096;SDS011;2062;50.694;7.246;2023-05-07T03:07:06;3.80;;;1.30;;
4096;SDS011;2062;50.694;7.246;2023-05-07T03:09:32;5.65;;;1.88;;
4096;SDS011;2062;50.694;7.246;2023-05-07T03:11:59;4.00;;;1.40;;
4096;SDS011;2062;50.694;7.246;2023-05-07T03:14:26;3.90;;;1.40;;
4096;SDS011;2062;50.694;7.246;2023-05-07T03:16:53;5.27;;;1.47;;
4096;SDS011;2062;50.694;7.246;2023-05-07T03:19:20;4.70;;;1.45;;
4096;SDS011;2062;50.694;7.246;2023-05-07T03:21:48;3.75;;;1.42;;
4096;SDS011;2062;50.694;7.246;2023-05-07T03:24:15;3.85;;;1.30;;
4096;SDS011;2062;50.694;7.246;2023-05-07T03:26:42;3.97;;;1.65;;
4096;SDS011;2062;50.694;7.246;2023-05-07T03:29:09;4.07;;;1.50;;
4096;SDS011;2062;50.694;7.246;2023-05-07T03:31:35;3.50;;;1.20;;
4096;SDS011;2062;50.694;7.246;2023-05-07T03:34:02;5.97;;;1.58;;
4096;SDS011;2062;50.694;7.246;2023-05-07T03:36:30;4.82;;;1.52;;
4096;SDS011;2062;50.694;7.246;2023-05-07T03:38:58;4.88;;;1.50;;
4096;SDS011;2062;50.694;7.246;2023-05-07T03:41:25;5.40;;;1.47;;
4096;SDS011;2062;50.694;7.246;2023-05-07T03:43:51;4.18;;;1.40;;
4096;SDS011;2062;50.694;7.246;2023-05-07T03:46:18;4.20;;;1.48;;
4096;SDS011;2062;50.694;7.246;2023-05-07T03:48:45;4.40;;;1.60;;
4096;SDS011;2062;50.694;7.246;2023-05-07T03:51:12;4.60;;;1.60;;
4096;SDS011;2062;50.694;7.246;2023-05-07T03:53:39;4.77;;;1.80;;
4096;SDS011;2062;50.694;7.246;2023-05-07T03:56:07;4.05;;;1.40;;
4096;SDS011;2062;50.694;7.246;2023-05-07T03:58:34;5.10;;;1.70;;
4096;SDS011;2062;50.694;7.246;2023-05-07T04:01:00;4.25;;;1.50;;
4096;SDS011;2062;50.694;7.246;2023-05-07T04:03:27;5.10;;;1.73;;
4096;SDS011;2062;50.694;7.246;2023-05-07T04:05:54;7.80;;;1.90;;
4096;SDS011;2062;50.694;7.246;2023-05-07T04:08:21;4.57;;;1.40;;
4096;SDS011;2062;50.694;7.246;2023-05-07T04:10:48;4.25;;;1.60;;
4096;SDS011;2062;50.694;7.246;2023-05-07T04:13:22;4.03;;;1.63;;
4096;SDS011;2062;50.694;7.246;2023-05-07T04:15:49;4.18;;;1.73;;
4096;SDS011;2062;50.694;7.246;2023-05-07T04:18:15;3.97;;;1.50;;
4096;SDS011;2062;50.694;7.246;2023-05-07T04:20:42;4.30;;;1.60;;
4096;SDS011;2062;50.694;7.246;2023-05-07T04:23:09;4.05;;;1.40;;
4096;SDS011;2062;50.694;7.246;2023-05-07T04:25:36;4.32;;;1.70;;
4096;SDS011;2062;50.694;7.246;2023-05-07T04:28:03;4.43;;;1.77;;
4096;SDS011;2062;50.694;7.246;2023-05-07T04:30:32;5.43;;;1.77;;
4096;SDS011;2062;50.694;7.246;2023-05-07T04:32:59;4.35;;;1.60;;
4096;SDS011;2062;50.694;7.246;2023-05-07T04:35:26;4.82;;;1.70;;
4096;SDS011;2062;50.694;7.246;2023-05-07T04:37:53;4.18;;;1.70;;
4096;SDS011;2062;50.694;7.246;2023-05-07T04:40:20;4.20;;;1.77;;
4096;SDS011;2062;50.694;7.246;2023-05-07T04:42:47;3.90;;;1.70;;
4096;SDS011;2062;50.694;7.246;2023-05-07T04:45:14;4.15;;;1.73;;
4096;SDS011;2062;50.694;7.246;2023-05-07T04:47:42;4.47;;;1.90;;
4096;SDS011;2062;50.694;7.246;2023-05-07T04:50:09;5.40;;;1.90;;
4096;SDS011;2062;50.694;7.246;2023-05-07T04:52:36;5.45;;;2.20;;
4096;SDS011;2062;50.694;7.246;2023-05-07T04:55:03;5.70;;;2.10;;
4096;SDS011;2062;50.694;7.246;2023-05-07T04:57:31;4.18;;;1.88;;
4096;SDS011;2062;50.694;7.246;2023-05-07T04:59:58;4.03;;;1.77;;
4096;SDS011;2062;50.694;7.246;2023-05-07T05:02:24;4.90;;;1.90;;
4096;SDS011;2062;50.694;7.246;2023-05-07T05:04:52;6.72;;;2.20;;
4096;SDS011;2062;50.694;7.246;2023-05-07T05:07:19;4.60;;;2.20;;
4096;SDS011;2062;50.694;7.246;2023-05-07T05:09:47;5.90;;;2.08;;
4096;SDS011;2062;50.694;7.246;2023-05-07T05:12:14;4.43;;;1.90;;
4096;SDS011;2062;50.694;7.246;2023-05-07T05:14:40;4.50;;;2.00;;
4096;SDS011;2062;50.694;7.246;2023-05-07T05:17:08;4.80;;;1.85;;
4096;SDS011;2062;50.694;7.246;2023-05-07T05:19:34;7.17;;;1.93;;
4096;SDS011;2062;50.694;7.246;2023-05-07T05:22:03;4.03;;;1.70;;
4096;SDS011;2062;50.694;7.246;2023-05-07T05:24:29;4.95;;;1.67;;
4096;SDS011;2062;50.694;7.246;2023-05-07T05:26:56;4.93;;;1.80;;
4096;SDS011;2062;50.694;7.246;2023-05-07T05:29:24;4.53;;;1.70;;
4096;SDS011;2062;50.694;7.246;2023-05-07T05:31:51;5.77;;;1.87;;
4096;SDS011;2062;50.694;7.246;2023-05-07T05:34:18;4.65;;;2.00;;
4096;SDS011;2062;50.694;7.246;2023-05-07T05:36:45;4.47;;;1.88;;
4096;SDS011;2062;50.694;7.246;2023-05-07T05:39:13;4.20;;;1.88;;
4096;SDS011;2062;50.694;7.246;2023-05-07T05:41:40;4.75;;;2.08;;
4096;SDS011;2062;50.694;7.246;2023-05-07T05:44:07;4.83;;;1.90;;
4096;SDS011;2062;50.694;7.246;2023-05-07T05:46:34;5.20;;;1.77;;
4096;SDS011;2062;50.694;7.246;2023-05-07T05:49:01;5.15;;;1.90;;
4096;SDS011;2062;50.694;7.246;2023-05-07T05:51:28;5.45;;;1.40;;
4096;SDS011;2062;50.694;7.246;2023-05-07T05:53:56;5.15;;;1.80;;
4096;SDS011;2062;50.694;7.246;2023-05-07T05:56:24;4.57;;;1.80;;
4096;SDS011;2062;50.694;7.246;2023-05-07T05:58:50;4.07;;;1.65;;
4096;SDS011;2062;50.694;7.246;2023-05-07T06:01:17;5.75;;;1.70;;
4096;SDS011;2062;50.694;7.246;2023-05-07T06:03:44;4.90;;;1.58;;
4096;SDS011;2062;50.694;7.246;2023-05-07T06:06:11;6.63;;;1.58;;
4096;SDS011;2062;50.694;7.246;2023-05-07T06:08:39;5.07;;;1.77;;
4096;SDS011;2062;50.694;7.246;2023-05-07T06:11:06;4.30;;;1.48;;
4096;SDS011;2062;50.694;7.246;2023-05-07T06:13:34;5.35;;;1.80;;
4096;SDS011;2062;50.694;7.246;2023-05-07T06:16:01;4.00;;;1.60;;
4096;SDS011;2062;50.694;7.246;2023-05-07T06:18:28;3.95;;;1.73;;
4096;SDS011;2062;50.694;7.246;2023-05-07T06:20:55;5.37;;;1.63;;
4096;SDS011;2062;50.694;7.246;2023-05-07T06:23:22;5.53;;;1.50;;
4096;SDS011;2062;50.694;7.246;2023-05-07T06:25:49;4.10;;;1.67;;
4096;SDS011;2062;50.694;7.246;2023-05-07T06:28:15;3.92;;;1.55;;
4096;SDS011;2062;50.694;7.246;2023-05-07T06:30:44;3.85;;;1.30;;
4096;SDS011;2062;50.694;7.246;2023-05-07T06:33:10;5.80;;;1.60;;
4096;SDS011;2062;50.694;7.246;2023-05-07T06:35:37;4.00;;;1.52;;
4096;SDS011;2062;50.694;7.246;2023-05-07T06:38:04;4.13;;;1.70;;
4096;SDS011;2062;50.694;7.246;2023-05-07T06:40:31;4.43;;;1.75;;
4096;SDS011;2062;50.694;7.246;2023-05-07T06:42:58;5.47;;;1.58;;
4096;SDS011;2062;50.694;7.246;2023-05-07T06:45:25;4.00;;;1.60;;
4096;SDS011;2062;50.694;7.246;2023-05-07T06:47:53;4.65;;;1.73;;
4096;SDS011;2062;50.694;7.246;2023-05-07T06:50:20;4.65;;;1.60;;
4096;SDS011;2062;50.694;7.246;2023-05-07T06:52:46;5.43;;;1.60;;
4096;SDS011;2062;50.694;7.246;2023-05-07T06:55:13;4.25;;;1.83;;
4096;SDS011;2062;50.694;7.246;2023-05-07T06:57:40;4.90;;;1.70;;
4096;SDS011;2062;50.694;7.246;2023-05-07T07:00:07;4.40;;;1.70;;
4096;SDS011;2062;50.694;7.246;2023-05-07T07:02:36;4.70;;;1.70;;
4096;SDS011;2062;50.694;7.246;2023-05-07T07:05:04;4.53;;;1.90;;
4096;SDS011;2062;50.694;7.246;2023-05-07T07:07:32;7.38;;;1.80;;
4096;SDS011;2062;50.694;7.246;2023-05-07T07:09:58;4.63;;;1.77;;
4096;SDS011;2062;50.694;7.246;2023-05-07T07:12:25;4.95;;;1.50;;
4096;SDS011;2062;50.694;7.246;2023-05-07T07:14:54;4.88;;;1.90;;
4096;SDS011;2062;50.694;7.246;2023-05-07T07:17:20;5.97;;;1.85;;
4096;SDS011;2062;50.694;7.246;2023-05-07T07:19:47;4.10;;;1.65;;
4096;SDS011;2062;50.694;7.246;2023-05-07T07:22:16;4.50;;;1.77;;
4096;SDS011;2062;50.694;7.246;2023-05-07T07:24:42;5.03;;;1.70;;
4096;SDS011;2062;50.694;7.246;2023-05-07T07:27:09;4.63;;;1.60;;
4096;SDS011;2062;50.694;7.246;2023-05-07T07:29:36;4.35;;;1.90;;
4096;SDS011;2062;50.694;7.246;2023-05-07T07:32:03;4.88;;;1.75;;
4096;SDS011;2062;50.694;7.246;2023-05-07T07:34:31;4.40;;;1.93;;
4096;SDS011;2062;50.694;7.246;2023-05-07T07:36:57;4.53;;;1.90;;
4096;SDS011;2062;50.694;7.246;2023-05-07T07:39:31;5.82;;;1.90;;
4096;SDS011;2062;50.694;7.246;2023-05-07T07:41:58;5.57;;;1.95;;
4096;SDS011;2062;50.694;7.246;2023-05-07T07:44:25;4.65;;;1.80;;
4096;SDS011;2062;50.694;7.246;2023-05-07T07:46:53;4.47;;;1.90;;
4096;SDS011;2062;50.694;7.246;2023-05-07T07:49:20;5.03;;;1.92;;
4096;SDS011;2062;50.694;7.246;2023-05-07T07:51:47;4.95;;;2.00;;
4096;SDS011;2062;50.694;7.246;2023-05-07T07:54:14;4.75;;;1.90;;
4096;SDS011;2062;50.694;7.246;2023-05-07T07:56:42;4.10;;;1.85;;
4096;SDS011;2062;50.694;7.246;2023-05-07T07:59:09;5.33;;;1.93;;
4096;SDS011;2062;50.694;7.246;2023-05-07T08:01:36;5.25;;;1.70;;
4096;SDS011;2062;50.694;7.246;2023-05-07T08:04:03;4.80;;;1.65;;
4096;SDS011;2062;50.694;7.246;2023-05-07T08:06:30;4.45;;;1.77;;
4096;SDS011;2062;50.694;7.246;2023-05-07T08:08:57;6.13;;;1.90;;
4096;SDS011;2062;50.694;7.246;2023-05-07T08:11:24;4.03;;;1.60;;
4096;SDS011;2062;50.694;7.246;2023-05-07T08:13:52;4.57;;;1.80;;
4096;SDS011;2062;50.694;7.246;2023-05-07T08:16:19;5.63;;;1.98;;
4096;SDS011;2062;50.694;7.246;2023-05-07T08:18:46;4.60;;;1.88;;
4096;SDS011;2062;50.694;7.246;2023-05-07T08:21:13;4.25;;;1.80;;
4096;SDS011;2062;50.694;7.246;2023-05-07T08:23:40;4.50;;;2.00;;
4096;SDS011;2062;50.694;7.246;2023-05-07T08:26:07;4.15;;;1.73;;
4096;SDS011;2062;50.694;7.246;2023-05-07T08:28:34;4.15;;;1.70;;
4096;SDS011;2062;50.694;7.246;2023-05-07T08:31:02;4.40;;;1.70;;
4096;SDS011;2062;50.694;7.246;2023-05-07T08:33:30;5.35;;;1.83;;
4096;SDS011;2062;50.694;7.246;2023-05-07T08:35:56;5.60;;;1.70;;
4096;SDS011;2062;50.694;7.246;2023-05-07T08:38:23;4.40;;;1.70;;
4096;SDS011;2062;50.694;7.246;2023-05-07T08:40:50;4.28;;;1.70;;
4096;SDS011;2062;50.694;7.246;2023-05-07T08:43:17;4.22;;;1.90;;
4096;SDS011;2062;50.694;7.246;2023-05-07T08:45:45;4.60;;;2.00;;
4096;SDS011;2062;50.694;7.246;2023-05-07T08:48:16;5.57;;;1.93;;
4096;SDS011;2062;50.694;7.246;2023-05-07T08:50:43;4.20;;;1.90;;
4096;SDS011;2062;50.694;7.246;2023-05-07T08:53:10;4.47;;;1.90;;
4096;SDS011;2062;50.694;7.246;2023-05-07T08:55:38;4.43;;;1.85;;
4096;SDS011;2062;50.694;7.246;2023-05-07T08:58:05;4.60;;;1.90;;
4096;SDS011;2062;50.694;7.246;2023-05-07T09:00:32;4.03;;;1.73;;
4096;SDS011;2062;50.694;7.246;2023-05-07T09:02:59;4.80;;;1.90;;
4096;SDS011;2062;50.694;7.246;2023-05-07T09:05:28;4.38;;;1.88;;
4096;SDS011;2062;50.694;7.246;2023-05-07T09:07:55;4.60;;;1.70;;
4096;SDS011;2062;50.694;7.246;2023-05-07T09:10:25;5.05;;;1.90;;
4096;SDS011;2062;50.694;7.246;2023-05-07T09:12:52;4.53;;;1.70;;
4096;SDS011;2062;50.694;7.246;2023-05-07T09:15:19;4.38;;;1.60;;
4096;SDS011;2062;50.694;7.246;2023-05-07T09:17:46;5.35;;;2.35;;
4096;SDS011;2062;50.694;7.246;2023-05-07T09:20:13;4.10;;;1.52;;
4096;SDS011;2062;50.694;7.246;2023-05-07T09:22:41;4.13;;;1.73;;
4096;SDS011;2062;50.694;7.246;2023-05-07T09:25:09;6.60;;;1.73;;
4096;SDS011;2062;50.694;7.246;2023-05-07T09:27:36;4.13;;;1.73;;
4096;SDS011;2062;50.694;7.246;2023-05-07T09:30:03;4.07;;;2.00;;
4096;SDS011;2062;50.694;7.246;2023-05-07T09:32:33;4.53;;;1.70;;
4096;SDS011;2062;50.694;7.246;2023-05-07T09:35:01;3.83;;;1.55;;
4096;SDS011;2062;50.694;7.246;2023-05-07T09:37:28;4.17;;;1.70;;
4096;SDS011;2062;50.694;7.246;2023-05-07T09:39:58;4.53;;;1.80;;
4096;SDS011;2062;50.694;7.246;2023-05-07T09:42:25;4.57;;;2.10;;
4096;SDS011;2062;50.694;7.246;2023-05-07T09:44:53;5.38;;;1.58;;
4096;SDS011;2062;50.694;7.246;2023-05-07T09:47:20;5.25;;;1.92;;
4096;SDS011;2062;50.694;7.246;2023-05-07T09:49:50;4.10;;;1.60;;
4096;SDS011;2062;50.694;7.246;2023-05-07T09:52:21;3.80;;;1.70;;
4096;SDS011;2062;50.694;7.246;2023-05-07T09:54:49;4.25;;;1.80;;
4096;SDS011;2062;50.694;7.246;2023-05-07T09:57:19;3.70;;;1.65;;
4096;SDS011;2062;50.694;7.246;2023-05-07T09:59:47;4.18;;;1.80;;
4096;SDS011;2062;50.694;7.246;2023-05-07T10:02:15;4.13;;;1.70;;
4096;SDS011;2062;50.694;7.246;2023-05-07T10:04:44;5.45;;;1.98;;
4096;SDS011;2062;50.694;7.246;2023-05-07T10:07:13;4.38;;;1.90;;
4096;SDS011;2062;50.694;7.246;2023-05-07T10:09:40;5.78;;;2.00;;
4096;SDS011;2062;50.694;7.246;2023-05-07T10:12:09;4.60;;;2.00;;
4096;SDS011;2062;50.694;7.246;2023-05-07T10:14:37;4.47;;;1.80;;
4096;SDS011;2062;50.694;7.246;2023-05-07T10:17:04;5.78;;;1.90;;
4096;SDS011;2062;50.694;7.246;2023-05-07T10:19:32;4.43;;;1.90;;
4096;SDS011;2062;50.694;7.246;2023-05-07T10:22:03;5.55;;;1.65;;
4096;SDS011;2062;50.694;7.246;2023-05-07T10:24:32;3.75;;;1.80;;
4096;SDS011;2062;50.694;7.246;2023-05-07T10:27:00;4.57;;;1.83;;
4096;SDS011;2062;50.694;7.246;2023-05-07T10:29:33;5.20;;;1.52;;
4096;SDS011;2062;50.694;7.246;2023-05-07T10:32:12;5.78;;;1.77;;
4096;SDS011;2062;50.694;7.246;2023-05-07T10:34:53;4.05;;;1.80;;
4096;SDS011;2062;50.694;7.246;2023-05-07T10:37:22;4.38;;;1.98;;
4096;SDS011;2062;50.694;7.246;2023-05-07T10:39:50;3.67;;;1.80;;
4096;SDS011;2062;50.694;7.246;2023-05-07T10:42:18;4.05;;;2.00;;
4096;SDS011;2062;50.694;7.246;2023-05-07T10:44:44;4.90;;;1.65;;
4096;SDS011;2062;50.694;7.246;2023-05-07T10:47:14;5.25;;;1.75;;
4096;SDS011;2062;50.694;7.246;2023-05-07T10:52:53;4.47;;;1.60;;
4096;SDS011;2062;50.694;7.246;2023-05-07T10:58:52;5.63;;;1.55;;
4096;SDS011;2062;50.694;7.246;2023-05-07T11:04:18;6.45;;;1.70;;
4096;SDS011;2062;50.694;7.246;2023-05-07T11:09:56;4.15;;;1.80;;
4096;SDS011;2062;50.694;7.246;2023-05-07T11:15:15;3.85;;;1.60;;
4096;SDS011;2062;50.694;7.246;2023-05-07T11:18:00;3.85;;;1.73;;
4096;SDS011;2062;50.694;7.246;2023-05-07T11:26:21;6.43;;;2.03;;
4096;SDS011;2062;50.694;7.246;2023-05-07T11:28:48;4.05;;;1.42;;
4096;SDS011;2062;50.694;7.246;2023-05-07T11:31:17;4.20;;;1.60;;
4096;SDS011;2062;50.694;7.246;2023-05-07T11:33:47;4.13;;;1.73;;
4096;SDS011;2062;50.694;7.246;2023-05-07T11:36:15;4.30;;;1.67;;
4096;SDS011;2062;50.694;7.246;2023-05-07T11:38:44;4.60;;;1.70;;
4096;SDS011;2062;50.694;7.246;2023-05-07T11:41:10;4.25;;;1.70;;
4096;SDS011;2062;50.694;7.246;2023-05-07T11:43:38;5.95;;;1.80;;
4096;SDS011;2062;50.694;7.246;2023-05-07T11:46:19;3.60;;;1.60;;
4096;SDS011;2062;50.694;7.246;2023-05-07T11:48:46;4.93;;;1.80;;
4096;SDS011;2062;50.694;7.246;2023-05-07T11:51:14;4.45;;;1.90;;
4096;SDS011;2062;50.694;7.246;2023-05-07T11:53:47;4.25;;;1.40;;
4096;SDS011;2062;50.694;7.246;2023-05-07T11:56:15;4.00;;;1.80;;
4096;SDS011;2062;50.694;7.246;2023-05-07T11:58:44;3.90;;;1.80;;
4096;SDS011;2062;50.694;7.246;2023-05-07T12:01:12;3.90;;;1.70;;
4096;SDS011;2062;50.694;7.246;2023-05-07T12:03:41;3.95;;;1.60;;
4096;SDS011;2062;50.694;7.246;2023-05-07T12:06:09;4.13;;;1.75;;
4096;SDS011;2062;50.694;7.246;2023-05-07T12:08:39;4.25;;;1.67;;
4096;SDS011;2062;50.694;7.246;2023-05-07T12:11:07;4.13;;;1.80;;
4096;SDS011;2062;50.694;7.246;2023-05-07T12:13:36;4.70;;;1.70;;
4096;SDS011;2062;50.694;7.246;2023-05-07T12:16:03;5.70;;;1.92;;
4096;SDS011;2062;50.694;7.246;2023-05-07T12:18:32;5.60;;;1.95;;
4096;SDS011;2062;50.694;7.246;2023-05-07T12:21:03;5.78;;;1.90;;
4096;SDS011;2062;50.694;7.246;2023-05-07T12:23:31;5.40;;;2.07;;
4096;SDS011;2062;50.694;7.246;2023-05-07T12:26:00;4.38;;;2.33;;
4096;SDS011;2062;50.694;7.246;2023-05-07T12:28:27;7.45;;;2.72;;
4096;SDS011;2062;50.694;7.246;2023-05-07T12:30:55;7.80;;;2.78;;
4096;SDS011;2062;50.694;7.246;2023-05-07T12:33:24;6.20;;;2.55;;
4096;SDS011;2062;50.694;7.246;2023-05-07T12:35:53;5.47;;;2.30;;
4096;SDS011;2062;50.694;7.246;2023-05-07T12:38:21;5.95;;;2.38;;
4096;SDS011;2062;50.694;7.246;2023-05-07T12:40:49;7.72;;;2.55;;
4096;SDS011;2062;50.694;7.246;2023-05-07T12:43:18;5.20;;;1.98;;
4096;SDS011;2062;50.694;7.246;2023-05-07T12:45:46;5.80;;;2.20;;
4096;SDS011;2062;50.694;7.246;2023-05-07T12:48:14;10.37;;;2.30;;
4096;SDS011;2062;50.694;7.246;2023-05-07T12:50:41;5.22;;;2.30;;
4096;SDS011;2062;50.694;7.246;2023-05-07T12:53:10;6.30;;;2.05;;
4096;SDS011;2062;50.694;7.246;2023-05-07T12:55:41;6.50;;;2.38;;
4096;SDS011;2062;50.694;7.246;2023-05-07T12:58:14;5.53;;;1.92;;
4096;SDS011;2062;50.694;7.246;2023-05-07T13:00:43;4.17;;;1.90;;
4096;SDS011;2062;50.694;7.246;2023-05-07T13:03:11;4.55;;;1.98;;
4096;SDS011;2062;50.694;7.246;2023-05-07T13:05:38;5.03;;;2.20;;
4096;SDS011;2062;50.694;7.246;2023-05-07T13:08:05;4.72;;;2.00;;
4096;SDS011;2062;50.694;7.246;2023-05-07T13:10:34;4.95;;;1.90;;
4096;SDS011;2062;50.694;7.246;2023-05-07T13:13:01;4.30;;;2.10;;
4096;SDS011;2062;50.694;7.246;2023-05-07T13:15:29;5.82;;;2.08;;
4096;SDS011;2062;50.694;7.246;2023-05-07T13:17:57;4.32;;;2.00;;
4096;SDS011;2062;50.694;7.246;2023-05-07T13:20:24;5.55;;;2.25;;
4096;SDS011;2062;50.694;7.246;2023-05-07T13:22:50;4.88;;;2.20;;
4096;SDS011;2062;50.694;7.246;2023-05-07T13:25:17;4.77;;;2.10;;
4096;SDS011;2062;50.694;7.246;2023-05-07T13:27:44;5.35;;;1.60;;
4096;SDS011;2062;50.694;7.246;2023-05-07T13:30:11;4.05;;;1.98;;
4096;SDS011;2062;50.694;7.246;2023-05-07T13:32:38;3.85;;;1.80;;
4096;SDS011;2062;50.694;7.246;2023-05-07T13:35:07;4.75;;;1.98;;
4096;SDS011;2062;50.694;7.246;2023-05-07T13:37:34;3.83;;;1.80;;
4096;SDS011;2062;50.694;7.246;2023-05-07T13:40:01;4.82;;;1.90;;
4096;SDS011;2062;50.694;7.246;2023-05-07T13:42:28;4.88;;;2.15;;
4096;SDS011;2062;50.694;7.246;2023-05-07T13:44:55;4.03;;;2.00;;
4096;SDS011;2062;50.694;7.246;2023-05-07T13:47:22;4.95;;;2.15;;
4096;SDS011;2062;50.694;7.246;2023-05-07T13:49:49;4.37;;;1.90;;
4096;SDS011;2062;50.694;7.246;2023-05-07T13:52:17;4.88;;;1.90;;
4096;SDS011;2062;50.694;7.246;2023-05-07T13:54:45;4.13;;;2.10;;
4096;SDS011;2062;50.694;7.246;2023-05-07T13:57:12;3.60;;;1.60;;
4096;SDS011;2062;50.694;7.246;2023-05-07T13:59:38;4.03;;;1.80;;
4096;SDS011;2062;50.694;7.246;2023-05-07T14:02:05;6.10;;;2.13;;
4096;SDS011;2062;50.694;7.246;2023-05-07T14:04:33;3.90;;;1.58;;
4096;SDS011;2062;50.694;7.246;2023-05-07T14:06:59;4.63;;;1.92;;
4096;SDS011;2062;50.694;7.246;2023-05-07T14:09:28;5.43;;;2.15;;
4096;SDS011;2062;50.694;7.246;2023-05-07T14:11:55;4.10;;;1.90;;
4096;SDS011;2062;50.694;7.246;2023-05-07T14:14:21;4.67;;;1.90;;
4096;SDS011;2062;50.694;7.246;2023-05-07T14:16:48;3.80;;;1.95;;
4096;SDS011;2062;50.694;7.246;2023-05-07T14:19:15;4.25;;;1.73;;
4096;SDS011;2062;50.694;7.246;2023-05-07T14:21:42;4.35;;;1.80;;
4096;SDS011;2062;50.694;7.246;2023-05-07T14:24:09;4.10;;;1.90;;
4096;SDS011;2062;50.694;7.246;2023-05-07T14:26:37;5.47;;;1.60;;
4096;SDS011;2062;50.694;7.246;2023-05-07T14:29:04;4.03;;;1.83;;
4096;SDS011;2062;50.694;7.246;2023-05-07T14:31:31;5.07;;;2.10;;
4096;SDS011;2062;50.694;7.246;2023-05-07T14:33:59;3.90;;;1.70;;
4096;SDS011;2062;50.694;7.246;2023-05-07T14:36:25;5.00;;;2.10;;
4096;SDS011;2062;50.694;7.246;2023-05-07T14:38:52;9.47;;;2.53;;
4096;SDS011;2062;50.694;7.246;2023-05-07T14:41:20;11.48;;;2.90;;
4096;SDS011;2062;50.694;7.246;2023-05-07T14:43:49;15.70;;;3.45;;
4096;SDS011;2062;50.694;7.246;2023-05-07T14:46:16;9.25;;;2.53;;
4096;SDS011;2062;50.694;7.246;2023-05-07T14:48:43;6.90;;;2.30;;
4096;SDS011;2062;50.694;7.246;2023-05-07T14:51:11;6.03;;;2.40;;
4096;SDS011;2062;50.694;7.246;2023-05-07T14:53:38;4.85;;;1.98;;
4096;SDS011;2062;50.694;7.246;2023-05-07T14:56:07;4.97;;;2.08;;
4096;SDS011;2062;50.694;7.246;2023-05-07T14:58:34;5.20;;;2.13;;
4096;SDS011;2062;50.694;7.246;2023-05-07T15:01:03;4.75;;;2.30;;
4096;SDS011;2062;50.694;7.246;2023-05-07T15:03:30;5.83;;;2.20;;
4096;SDS011;2062;50.694;7.246;2023-05-07T15:05:57;5.25;;;2.63;;
4096;SDS011;2062;50.694;7.246;2023-05-07T15:08:24;7.07;;;2.88;;
4096;SDS011;2062;50.694;7.246;2023-05-07T15:10:51;6.15;;;2.83;;
4096;SDS011;2062;50.694;7.246;2023-05-07T15:13:18;6.57;;;2.50;;
4096;SDS011;2062;50.694;7.246;2023-05-07T15:15:45;5.10;;;2.33;;
4096;SDS011;2062;50.694;7.246;2023-05-07T15:18:14;4.93;;;2.65;;
4096;SDS011;2062;50.694;7.246;2023-05-07T15:20:41;7.57;;;3.10;;
4096;SDS011;2062;50.694;7.246;2023-05-07T15:23:08;5.32;;;2.67;;
4096;SDS011;2062;50.694;7.246;2023-05-07T15:25:37;5.53;;;2.80;;
4096;SDS011;2062;50.694;7.246;2023-05-07T15:28:04;5.20;;;2.33;;
4096;SDS011;2062;50.694;7.246;2023-05-07T15:30:31;5.70;;;2.67;;
4096;SDS011;2062;50.694;7.246;2023-05-07T15:32:57;5.20;;;2.55;;
4096;SDS011;2062;50.694;7.246;2023-05-07T15:35:26;4.90;;;2.63;;
4096;SDS011;2062;50.694;7.246;2023-05-07T15:37:53;6.82;;;2.78;;
4096;SDS011;2062;50.694;7.246;2023-05-07T15:40:20;5.80;;;2.60;;